Pagina principale
METAR-TAF:

METAR-TAF

Aeroporti :

Paraguaná, Venezuela

latitudine: 11-47N, longitudine: 070-09W, altezza: 23 m

Osservazione

Il bollettino è stato emesso 18 ore e 45 minuti fa, alle 15:00 UTC
Temperature 33°C
Umidità 56%
Pressione 1022 hPa
Visibilità 10 km o più
Poco nuvoloso ad un'altezza di 1600 ft

METAR: SVJC 251500Z /////KT 9999 FEW016 33/23 Q1022

Ora: 05:45 (09:45 UTC)

Previsione

Il bollettino è stato emesso 11 ore e 45 minuti fa, alle 22:00 UTC
Previsione valida dal 26 alle 00 UTC al 27 alle 00 UTC
Vento 10 kt da sud
Visibilità 10 km o più
Nubi sparse ad un'altezza di 2000 ft
Evoluzione graduale
dal 26 alle 05 UTC al 26 alle 09 UTC
Vento 4 kt da nord-est
Visibilità: 9000 m
Nubi sparse ad un'altezza di 1300 ft
Nuvoloso ad un'altezza di 7000 ft
pioviggine debole,

TAF: SVJC 252200Z 2600/2700 17010KT 9999 SCT020 TX34/2619Z TN25/2607Z BECMG 2605/2609 05004KT 9000 -DZ SCT013 BKN070

Osservazioni e previsioni meteorologiche di più di 4000 aeroporti (messaggi METAR e TAF).

Le stazioni disponibili sono rappresentate dai dischi gialli e rossi sulla carta.

Puntare il mouse per vedere il nome della stazione.

Clicca sopra per visualizzare le osservazioni e previsioni meteorologiche.

Per cambiare la mappa : fare clic sui pulsanti verdi con una croce nera per ingrandire, il pulsante verde con un trattino per diminuire, o sulla freccia verde per le mappe adiacenti.


METAR-TAF: